Terminal Aerodrome Forecast
Issued by NWS Buffalo, NY

Home | Current Version | Previous Version | Text Only | Print | Product List | Glossary On
Versions: 1 2 3 4 5 6 7 8 9 10 11 12 13 14 15 16 17 18 19 20 21 22 23 24 25 26
000
FTUS41 KBUF 010800 AAA
TAFBUF
TAF AMD
KBUF 010859Z 0109/0206 16003KT P6SM OVC060
     FM011200 15004KT P6SM VCSH OVC045
     FM011400 18005KT 4SM -SHSN OVC035
     FM011800 24004KT 2SM -SN OVC020
     FM012300 VRB03KT 1SM -SN OVC020
     FM020100 25004KT 2SM -SN OVC012=

USA.gov is the U.S. government's official web portal to all federal, state and local government web resources and services.